sensor_id;sensor_type;location;lat;lon;timestamp;P1;durP1;ratioP1;P2;durP2;ratioP2
22963;SDS011;11648;49.306;6.934;2023-05-24T00:00:21;10.50;;;5.30;;
22963;SDS011;11648;49.306;6.934;2023-05-24T00:02:48;10.00;;;5.90;;
22963;SDS011;11648;49.306;6.934;2023-05-24T00:05:15;9.73;;;5.30;;
22963;SDS011;11648;49.306;6.934;2023-05-24T00:07:44;10.23;;;5.13;;
22963;SDS011;11648;49.306;6.934;2023-05-24T00:10:11;10.30;;;6.10;;
22963;SDS011;11648;49.306;6.934;2023-05-24T00:12:37;10.90;;;5.70;;
22963;SDS011;11648;49.306;6.934;2023-05-24T00:15:04;11.47;;;5.67;;
22963;SDS011;11648;49.306;6.934;2023-05-24T00:17:32;11.97;;;5.73;;
22963;SDS011;11648;49.306;6.934;2023-05-24T00:20:00;14.37;;;6.23;;
22963;SDS011;11648;49.306;6.934;2023-05-24T00:22:26;11.57;;;6.50;;
22963;SDS011;11648;49.306;6.934;2023-05-24T00:24:53;11.77;;;5.27;;
22963;SDS011;11648;49.306;6.934;2023-05-24T00:27:20;14.47;;;5.80;;
22963;SDS011;11648;49.306;6.934;2023-05-24T00:29:46;12.53;;;6.00;;
22963;SDS011;11648;49.306;6.934;2023-05-24T00:32:13;10.67;;;5.93;;
22963;SDS011;11648;49.306;6.934;2023-05-24T00:34:40;12.73;;;5.53;;
22963;SDS011;11648;49.306;6.934;2023-05-24T00:37:07;11.40;;;6.07;;
22963;SDS011;11648;49.306;6.934;2023-05-24T00:39:33;13.27;;;5.47;;
22963;SDS011;11648;49.306;6.934;2023-05-24T00:42:00;10.57;;;5.60;;
22963;SDS011;11648;49.306;6.934;2023-05-24T00:44:27;10.73;;;5.73;;
22963;SDS011;11648;49.306;6.934;2023-05-24T00:46:54;12.70;;;5.70;;
22963;SDS011;11648;49.306;6.934;2023-05-24T00:49:22;11.77;;;5.93;;
22963;SDS011;11648;49.306;6.934;2023-05-24T00:51:50;13.43;;;5.53;;
22963;SDS011;11648;49.306;6.934;2023-05-24T00:54:17;13.93;;;5.83;;
22963;SDS011;11648;49.306;6.934;2023-05-24T00:56:44;13.13;;;5.53;;
22963;SDS011;11648;49.306;6.934;2023-05-24T00:59:12;13.63;;;5.80;;
22963;SDS011;11648;49.306;6.934;2023-05-24T01:01:39;9.90;;;5.40;;
22963;SDS011;11648;49.306;6.934;2023-05-24T01:04:07;9.20;;;5.00;;
22963;SDS011;11648;49.306;6.934;2023-05-24T01:06:37;14.47;;;5.93;;
22963;SDS011;11648;49.306;6.934;2023-05-24T01:09:21;10.17;;;5.40;;
22963;SDS011;11648;49.306;6.934;2023-05-24T01:20:31;13.43;;;5.50;;
22963;SDS011;11648;49.306;6.934;2023-05-24T01:28:18;15.00;;;5.80;;
22963;SDS011;11648;49.306;6.934;2023-05-24T01:30:46;12.80;;;5.60;;
22963;SDS011;11648;49.306;6.934;2023-05-24T01:33:14;12.67;;;5.50;;
22963;SDS011;11648;49.306;6.934;2023-05-24T01:35:41;12.07;;;4.77;;
22963;SDS011;11648;49.306;6.934;2023-05-24T01:38:08;13.63;;;5.13;;
22963;SDS011;11648;49.306;6.934;2023-05-24T01:40:39;14.73;;;5.60;;
22963;SDS011;11648;49.306;6.934;2023-05-24T01:43:14;10.77;;;5.40;;
22963;SDS011;11648;49.306;6.934;2023-05-24T01:46:12;9.80;;;5.03;;
22963;SDS011;11648;49.306;6.934;2023-05-24T01:51:33;12.43;;;5.60;;
22963;SDS011;11648;49.306;6.934;2023-05-24T01:54:08;9.00;;;4.77;;
22963;SDS011;11648;49.306;6.934;2023-05-24T01:56:37;12.30;;;5.17;;
22963;SDS011;11648;49.306;6.934;2023-05-24T01:59:06;12.33;;;5.23;;
22963;SDS011;11648;49.306;6.934;2023-05-24T02:01:34;12.33;;;4.83;;
22963;SDS011;11648;49.306;6.934;2023-05-24T02:04:01;12.03;;;5.27;;
22963;SDS011;11648;49.306;6.934;2023-05-24T02:06:28;12.07;;;5.30;;
22963;SDS011;11648;49.306;6.934;2023-05-24T02:08:55;10.47;;;4.87;;
22963;SDS011;11648;49.306;6.934;2023-05-24T02:11:21;10.77;;;5.00;;
22963;SDS011;11648;49.306;6.934;2023-05-24T02:13:48;11.60;;;5.13;;
22963;SDS011;11648;49.306;6.934;2023-05-24T02:16:15;12.33;;;5.23;;
22963;SDS011;11648;49.306;6.934;2023-05-24T02:18:43;11.10;;;4.73;;
22963;SDS011;11648;49.306;6.934;2023-05-24T02:21:12;13.40;;;5.10;;
22963;SDS011;11648;49.306;6.934;2023-05-24T02:23:39;12.23;;;4.43;;
22963;SDS011;11648;49.306;6.934;2023-05-24T02:26:09;12.80;;;4.87;;
22963;SDS011;11648;49.306;6.934;2023-05-24T02:28:37;12.90;;;5.00;;
22963;SDS011;11648;49.306;6.934;2023-05-24T02:31:04;12.33;;;4.83;;
22963;SDS011;11648;49.306;6.934;2023-05-24T02:33:31;11.67;;;4.50;;
22963;SDS011;11648;49.306;6.934;2023-05-24T02:35:59;12.57;;;4.67;;
22963;SDS011;11648;49.306;6.934;2023-05-24T02:38:26;11.07;;;4.40;;
22963;SDS011;11648;49.306;6.934;2023-05-24T02:40:52;11.20;;;4.57;;
22963;SDS011;11648;49.306;6.934;2023-05-24T02:43:19;15.47;;;4.73;;
22963;SDS011;11648;49.306;6.934;2023-05-24T02:45:46;16.43;;;5.07;;
22963;SDS011;11648;49.306;6.934;2023-05-24T02:48:12;9.47;;;4.60;;
22963;SDS011;11648;49.306;6.934;2023-05-24T02:50:39;12.37;;;4.50;;
22963;SDS011;11648;49.306;6.934;2023-05-24T02:53:06;8.47;;;3.93;;
22963;SDS011;11648;49.306;6.934;2023-05-24T02:55:34;16.30;;;4.60;;
22963;SDS011;11648;49.306;6.934;2023-05-24T02:58:00;11.87;;;4.17;;
22963;SDS011;11648;49.306;6.934;2023-05-24T03:00:29;11.80;;;3.97;;
22963;SDS011;11648;49.306;6.934;2023-05-24T03:02:57;7.90;;;3.87;;
22963;SDS011;11648;49.306;6.934;2023-05-24T03:05:28;10.53;;;4.27;;
22963;SDS011;11648;49.306;6.934;2023-05-24T03:07:54;10.27;;;3.73;;
22963;SDS011;11648;49.306;6.934;2023-05-24T03:10:22;9.70;;;3.97;;
22963;SDS011;11648;49.306;6.934;2023-05-24T03:12:48;8.83;;;3.80;;
22963;SDS011;11648;49.306;6.934;2023-05-24T03:15:15;8.73;;;4.00;;
22963;SDS011;11648;49.306;6.934;2023-05-24T03:17:42;10.97;;;3.90;;
22963;SDS011;11648;49.306;6.934;2023-05-24T03:20:09;12.83;;;4.57;;
22963;SDS011;11648;49.306;6.934;2023-05-24T03:22:37;9.70;;;3.93;;
22963;SDS011;11648;49.306;6.934;2023-05-24T03:25:04;9.80;;;3.70;;
22963;SDS011;11648;49.306;6.934;2023-05-24T03:27:34;11.50;;;3.80;;
22963;SDS011;11648;49.306;6.934;2023-05-24T03:30:02;11.90;;;4.30;;
22963;SDS011;11648;49.306;6.934;2023-05-24T03:32:33;11.47;;;3.43;;
22963;SDS011;11648;49.306;6.934;2023-05-24T03:35:00;8.93;;;3.23;;
22963;SDS011;11648;49.306;6.934;2023-05-24T03:37:28;9.07;;;3.93;;
22963;SDS011;11648;49.306;6.934;2023-05-24T03:39:54;12.70;;;4.20;;
22963;SDS011;11648;49.306;6.934;2023-05-24T03:42:41;11.10;;;3.70;;
22963;SDS011;11648;49.306;6.934;2023-05-24T03:45:09;8.83;;;3.80;;
22963;SDS011;11648;49.306;6.934;2023-05-24T03:47:36;10.63;;;3.80;;
22963;SDS011;11648;49.306;6.934;2023-05-24T03:50:03;10.60;;;3.70;;
22963;SDS011;11648;49.306;6.934;2023-05-24T03:52:30;8.43;;;3.30;;
22963;SDS011;11648;49.306;6.934;2023-05-24T03:54:57;11.13;;;3.80;;
22963;SDS011;11648;49.306;6.934;2023-05-24T03:57:24;10.10;;;4.07;;
22963;SDS011;11648;49.306;6.934;2023-05-24T03:59:51;13.40;;;4.07;;
22963;SDS011;11648;49.306;6.934;2023-05-24T04:02:18;11.30;;;3.70;;
22963;SDS011;11648;49.306;6.934;2023-05-24T04:04:44;13.40;;;3.97;;
22963;SDS011;11648;49.306;6.934;2023-05-24T04:07:12;11.67;;;3.70;;
22963;SDS011;11648;49.306;6.934;2023-05-24T04:09:41;10.23;;;3.77;;
22963;SDS011;11648;49.306;6.934;2023-05-24T04:12:08;14.67;;;4.10;;
22963;SDS011;11648;49.306;6.934;2023-05-24T04:14:35;11.60;;;3.30;;
22963;SDS011;11648;49.306;6.934;2023-05-24T04:17:01;11.70;;;3.53;;
22963;SDS011;11648;49.306;6.934;2023-05-24T04:19:31;14.50;;;3.80;;
22963;SDS011;11648;49.306;6.934;2023-05-24T04:21:58;8.30;;;3.30;;
22963;SDS011;11648;49.306;6.934;2023-05-24T04:24:25;10.60;;;3.30;;
22963;SDS011;11648;49.306;6.934;2023-05-24T04:26:51;8.80;;;3.50;;
22963;SDS011;11648;49.306;6.934;2023-05-24T04:29:18;13.90;;;3.83;;
22963;SDS011;11648;49.306;6.934;2023-05-24T04:31:45;8.90;;;3.20;;
22963;SDS011;11648;49.306;6.934;2023-05-24T04:34:14;12.00;;;3.53;;
22963;SDS011;11648;49.306;6.934;2023-05-24T04:36:41;12.80;;;3.67;;
22963;SDS011;11648;49.306;6.934;2023-05-24T04:39:09;13.07;;;3.27;;
22963;SDS011;11648;49.306;6.934;2023-05-24T04:41:36;11.30;;;3.47;;
22963;SDS011;11648;49.306;6.934;2023-05-24T04:44:04;11.10;;;3.30;;
22963;SDS011;11648;49.306;6.934;2023-05-24T04:46:30;10.60;;;2.97;;
22963;SDS011;11648;49.306;6.934;2023-05-24T04:48:57;9.33;;;3.07;;
22963;SDS011;11648;49.306;6.934;2023-05-24T04:51:24;11.40;;;3.17;;
22963;SDS011;11648;49.306;6.934;2023-05-24T04:53:51;16.60;;;3.77;;
22963;SDS011;11648;49.306;6.934;2023-05-24T04:56:18;11.23;;;3.73;;
22963;SDS011;11648;49.306;6.934;2023-05-24T04:58:45;12.23;;;3.10;;
22963;SDS011;11648;49.306;6.934;2023-05-24T05:01:12;9.00;;;3.20;;
22963;SDS011;11648;49.306;6.934;2023-05-24T05:03:39;9.77;;;3.30;;
22963;SDS011;11648;49.306;6.934;2023-05-24T05:06:07;10.07;;;3.43;;
22963;SDS011;11648;49.306;6.934;2023-05-24T05:08:33;12.47;;;3.30;;
22963;SDS011;11648;49.306;6.934;2023-05-24T05:11:00;8.30;;;2.93;;
22963;SDS011;11648;49.306;6.934;2023-05-24T05:13:28;10.97;;;3.60;;
22963;SDS011;11648;49.306;6.934;2023-05-24T05:15:54;11.03;;;3.57;;
22963;SDS011;11648;49.306;6.934;2023-05-24T05:18:21;9.40;;;3.30;;
22963;SDS011;11648;49.306;6.934;2023-05-24T05:20:48;10.70;;;3.33;;
22963;SDS011;11648;49.306;6.934;2023-05-24T05:23:14;11.30;;;3.23;;
22963;SDS011;11648;49.306;6.934;2023-05-24T05:25:41;13.73;;;3.63;;
22963;SDS011;11648;49.306;6.934;2023-05-24T05:28:08;11.23;;;3.10;;
22963;SDS011;11648;49.306;6.934;2023-05-24T05:30:35;10.90;;;2.87;;
22963;SDS011;11648;49.306;6.934;2023-05-24T05:33:02;7.83;;;2.90;;
22963;SDS011;11648;49.306;6.934;2023-05-24T05:35:31;11.53;;;3.20;;
22963;SDS011;11648;49.306;6.934;2023-05-24T05:37:58;8.90;;;2.77;;
22963;SDS011;11648;49.306;6.934;2023-05-24T05:40:25;10.23;;;3.13;;
22963;SDS011;11648;49.306;6.934;2023-05-24T05:42:52;11.07;;;2.60;;
22963;SDS011;11648;49.306;6.934;2023-05-24T05:45:18;12.77;;;2.60;;
22963;SDS011;11648;49.306;6.934;2023-05-24T05:47:45;10.00;;;2.70;;
22963;SDS011;11648;49.306;6.934;2023-05-24T05:50:12;10.10;;;2.80;;
22963;SDS011;11648;49.306;6.934;2023-05-24T05:52:39;8.13;;;2.67;;
22963;SDS011;11648;49.306;6.934;2023-05-24T05:55:06;8.00;;;2.43;;
22963;SDS011;11648;49.306;6.934;2023-05-24T05:57:34;7.33;;;2.40;;
22963;SDS011;11648;49.306;6.934;2023-05-24T06:00:00;10.33;;;2.13;;
22963;SDS011;11648;49.306;6.934;2023-05-24T06:02:37;12.00;;;2.77;;
22963;SDS011;11648;49.306;6.934;2023-05-24T06:05:04;9.47;;;2.67;;
22963;SDS011;11648;49.306;6.934;2023-05-24T06:07:31;11.80;;;2.30;;
22963;SDS011;11648;49.306;6.934;2023-05-24T06:09:58;11.07;;;2.70;;
22963;SDS011;11648;49.306;6.934;2023-05-24T06:12:25;8.03;;;2.23;;
22963;SDS011;11648;49.306;6.934;2023-05-24T06:14:52;9.13;;;2.63;;
22963;SDS011;11648;49.306;6.934;2023-05-24T06:17:19;8.00;;;2.43;;
22963;SDS011;11648;49.306;6.934;2023-05-24T06:19:50;10.83;;;2.53;;
22963;SDS011;11648;49.306;6.934;2023-05-24T06:22:19;8.63;;;2.07;;
22963;SDS011;11648;49.306;6.934;2023-05-24T06:24:47;9.80;;;2.20;;
22963;SDS011;11648;49.306;6.934;2023-05-24T06:27:14;12.57;;;2.57;;
22963;SDS011;11648;49.306;6.934;2023-05-24T06:29:41;9.40;;;2.03;;
22963;SDS011;11648;49.306;6.934;2023-05-24T06:32:08;11.83;;;2.40;;
22963;SDS011;11648;49.306;6.934;2023-05-24T06:34:34;7.60;;;2.20;;
22963;SDS011;11648;49.306;6.934;2023-05-24T06:37:02;8.03;;;2.30;;
22963;SDS011;11648;49.306;6.934;2023-05-24T06:39:29;7.50;;;2.30;;
22963;SDS011;11648;49.306;6.934;2023-05-24T06:41:56;6.80;;;2.10;;
22963;SDS011;11648;49.306;6.934;2023-05-24T06:44:23;9.33;;;2.40;;
22963;SDS011;11648;49.306;6.934;2023-05-24T06:46:57;8.00;;;2.07;;
22963;SDS011;11648;49.306;6.934;2023-05-24T06:49:24;8.43;;;2.10;;
22963;SDS011;11648;49.306;6.934;2023-05-24T06:51:51;12.00;;;2.40;;
22963;SDS011;11648;49.306;6.934;2023-05-24T06:54:18;6.90;;;1.90;;
22963;SDS011;11648;49.306;6.934;2023-05-24T06:56:45;9.27;;;2.10;;
22963;SDS011;11648;49.306;6.934;2023-05-24T06:59:12;9.57;;;2.23;;
22963;SDS011;11648;49.306;6.934;2023-05-24T07:01:38;10.63;;;2.40;;
22963;SDS011;11648;49.306;6.934;2023-05-24T07:04:08;8.93;;;2.40;;
22963;SDS011;11648;49.306;6.934;2023-05-24T07:06:35;10.23;;;2.40;;
22963;SDS011;11648;49.306;6.934;2023-05-24T07:09:03;7.63;;;1.90;;
22963;SDS011;11648;49.306;6.934;2023-05-24T07:11:30;6.20;;;1.80;;
22963;SDS011;11648;49.306;6.934;2023-05-24T07:13:57;9.03;;;2.23;;
22963;SDS011;11648;49.306;6.934;2023-05-24T07:16:24;5.73;;;1.43;;
22963;SDS011;11648;49.306;6.934;2023-05-24T07:18:50;7.33;;;1.90;;
22963;SDS011;11648;49.306;6.934;2023-05-24T07:21:17;6.87;;;2.00;;
22963;SDS011;11648;49.306;6.934;2023-05-24T07:23:44;8.93;;;1.97;;
22963;SDS011;11648;49.306;6.934;2023-05-24T07:26:11;10.27;;;1.90;;
22963;SDS011;11648;49.306;6.934;2023-05-24T07:28:38;7.67;;;1.97;;
22963;SDS011;11648;49.306;6.934;2023-05-24T07:31:07;8.60;;;2.67;;
22963;SDS011;11648;49.306;6.934;2023-05-24T07:33:35;13.03;;;4.00;;
22963;SDS011;11648;49.306;6.934;2023-05-24T07:36:03;7.40;;;2.03;;
22963;SDS011;11648;49.306;6.934;2023-05-24T07:38:32;7.40;;;2.17;;
22963;SDS011;11648;49.306;6.934;2023-05-24T07:41:01;6.10;;;2.03;;
22963;SDS011;11648;49.306;6.934;2023-05-24T07:43:31;9.07;;;1.90;;
22963;SDS011;11648;49.306;6.934;2023-05-24T07:45:58;6.30;;;1.57;;
22963;SDS011;11648;49.306;6.934;2023-05-24T07:48:25;6.60;;;2.07;;
22963;SDS011;11648;49.306;6.934;2023-05-24T07:50:52;6.00;;;1.80;;
22963;SDS011;11648;49.306;6.934;2023-05-24T07:53:20;6.83;;;1.57;;
22963;SDS011;11648;49.306;6.934;2023-05-24T07:55:48;7.30;;;1.77;;
22963;SDS011;11648;49.306;6.934;2023-05-24T07:58:15;5.53;;;1.60;;
22963;SDS011;11648;49.306;6.934;2023-05-24T08:00:42;5.30;;;1.70;;
22963;SDS011;11648;49.306;6.934;2023-05-24T08:03:09;5.23;;;1.57;;
22963;SDS011;11648;49.306;6.934;2023-05-24T08:05:39;8.67;;;1.60;;
22963;SDS011;11648;49.306;6.934;2023-05-24T08:08:07;6.10;;;1.30;;
22963;SDS011;11648;49.306;6.934;2023-05-24T08:10:33;7.17;;;1.43;;
22963;SDS011;11648;49.306;6.934;2023-05-24T08:13:00;5.73;;;1.63;;
22963;SDS011;11648;49.306;6.934;2023-05-24T08:15:27;8.60;;;1.60;;
22963;SDS011;11648;49.306;6.934;2023-05-24T08:17:54;6.37;;;1.80;;
22963;SDS011;11648;49.306;6.934;2023-05-24T08:20:20;6.67;;;1.90;;
22963;SDS011;11648;49.306;6.934;2023-05-24T08:22:50;3.87;;;1.30;;
22963;SDS011;11648;49.306;6.934;2023-05-24T08:25:20;4.80;;;1.40;;
22963;SDS011;11648;49.306;6.934;2023-05-24T08:27:46;4.70;;;1.23;;
22963;SDS011;11648;49.306;6.934;2023-05-24T08:30:13;5.93;;;1.70;;
22963;SDS011;11648;49.306;6.934;2023-05-24T08:32:40;5.67;;;1.57;;
22963;SDS011;11648;49.306;6.934;2023-05-24T08:35:07;5.50;;;1.40;;
22963;SDS011;11648;49.306;6.934;2023-05-24T08:37:47;7.07;;;1.50;;
22963;SDS011;11648;49.306;6.934;2023-05-24T08:40:14;4.63;;;1.30;;
22963;SDS011;11648;49.306;6.934;2023-05-24T08:42:41;5.23;;;1.20;;
22963;SDS011;11648;49.306;6.934;2023-05-24T08:45:10;3.93;;;1.37;;
22963;SDS011;11648;49.306;6.934;2023-05-24T08:47:38;8.73;;;1.47;;
22963;SDS011;11648;49.306;6.934;2023-05-24T08:50:06;3.70;;;1.50;;
22963;SDS011;11648;49.306;6.934;2023-05-24T08:52:34;4.27;;;1.30;;
22963;SDS011;11648;49.306;6.934;2023-05-24T08:55:04;5.93;;;1.47;;
22963;SDS011;11648;49.306;6.934;2023-05-24T08:57:32;4.10;;;1.60;;
22963;SDS011;11648;49.306;6.934;2023-05-24T09:00:01;5.03;;;1.40;;
22963;SDS011;11648;49.306;6.934;2023-05-24T09:02:28;5.30;;;1.27;;
22963;SDS011;11648;49.306;6.934;2023-05-24T09:04:57;6.97;;;1.90;;
22963;SDS011;11648;49.306;6.934;2023-05-24T09:07:28;4.50;;;1.50;;
22963;SDS011;11648;49.306;6.934;2023-05-24T09:10:05;5.20;;;1.50;;
22963;SDS011;11648;49.306;6.934;2023-05-24T09:12:34;4.30;;;1.17;;
22963;SDS011;11648;49.306;6.934;2023-05-24T09:15:06;5.33;;;1.50;;
22963;SDS011;11648;49.306;6.934;2023-05-24T09:17:35;4.40;;;1.27;;
22963;SDS011;11648;49.306;6.934;2023-05-24T09:20:04;6.50;;;1.67;;
22963;SDS011;11648;49.306;6.934;2023-05-24T09:22:35;5.97;;;1.40;;
22963;SDS011;11648;49.306;6.934;2023-05-24T09:25:08;5.77;;;1.50;;
22963;SDS011;11648;49.306;6.934;2023-05-24T09:27:36;3.77;;;1.40;;
22963;SDS011;11648;49.306;6.934;2023-05-24T09:30:08;4.30;;;1.30;;
22963;SDS011;11648;49.306;6.934;2023-05-24T09:32:36;4.97;;;1.50;;
22963;SDS011;11648;49.306;6.934;2023-05-24T09:35:08;6.10;;;1.60;;
22963;SDS011;11648;49.306;6.934;2023-05-24T09:37:36;3.60;;;1.63;;
22963;SDS011;11648;49.306;6.934;2023-05-24T09:40:07;4.57;;;1.60;;
22963;SDS011;11648;49.306;6.934;2023-05-24T09:42:47;7.18;;;1.52;;
22963;SDS011;11648;49.306;6.934;2023-05-24T09:45:19;5.72;;;1.80;;
22963;SDS011;11648;49.306;6.934;2023-05-24T09:47:46;3.15;;;1.33;;
22963;SDS011;11648;49.306;6.934;2023-05-24T09:50:14;6.25;;;1.73;;
22963;SDS011;11648;49.306;6.934;2023-05-24T09:52:43;4.60;;;1.52;;
22963;SDS011;11648;49.306;6.934;2023-05-24T09:55:17;5.05;;;1.63;;
22963;SDS011;11648;49.306;6.934;2023-05-24T09:58:00;4.75;;;1.80;;
22963;SDS011;11648;49.306;6.934;2023-05-24T10:00:34;4.28;;;1.63;;
22963;SDS011;11648;49.306;6.934;2023-05-24T10:03:08;4.85;;;1.45;;
22963;SDS011;11648;49.306;6.934;2023-05-24T10:05:40;3.90;;;1.52;;
22963;SDS011;11648;49.306;6.934;2023-05-24T10:08:10;4.75;;;1.60;;
22963;SDS011;11648;49.306;6.934;2023-05-24T10:10:37;4.82;;;1.52;;
22963;SDS011;11648;49.306;6.934;2023-05-24T10:13:03;4.95;;;1.70;;
22963;SDS011;11648;49.306;6.934;2023-05-24T10:15:30;6.15;;;1.75;;
22963;SDS011;11648;49.306;6.934;2023-05-24T10:17:57;4.03;;;1.73;;
22963;SDS011;11648;49.306;6.934;2023-05-24T10:20:37;5.53;;;1.80;;
22963;SDS011;11648;49.306;6.934;2023-05-24T10:23:08;3.78;;;1.60;;
22963;SDS011;11648;49.306;6.934;2023-05-24T10:25:37;3.47;;;1.40;;
22963;SDS011;11648;49.306;6.934;2023-05-24T10:28:09;5.07;;;1.60;;
22963;SDS011;11648;49.306;6.934;2023-05-24T10:30:42;4.82;;;1.65;;
22963;SDS011;11648;49.306;6.934;2023-05-24T10:33:18;4.20;;;1.60;;
22963;SDS011;11648;49.306;6.934;2023-05-24T10:35:46;4.22;;;1.50;;
22963;SDS011;11648;49.306;6.934;2023-05-24T10:38:14;5.25;;;1.73;;
22963;SDS011;11648;49.306;6.934;2023-05-24T10:40:41;4.45;;;1.90;;
22963;SDS011;11648;49.306;6.934;2023-05-24T10:43:08;6.07;;;2.17;;
22963;SDS011;11648;49.306;6.934;2023-05-24T10:45:39;3.92;;;1.70;;
22963;SDS011;11648;49.306;6.934;2023-05-24T10:48:57;3.58;;;1.50;;
22963;SDS011;11648;49.306;6.934;2023-05-24T10:50:53;4.22;;;1.40;;
22963;SDS011;11648;49.306;6.934;2023-05-24T10:53:21;3.22;;;1.40;;
22963;SDS011;11648;49.306;6.934;2023-05-24T11:01:24;3.72;;;1.65;;
22963;SDS011;11648;49.306;6.934;2023-05-24T11:04:04;3.55;;;1.73;;
22963;SDS011;11648;49.306;6.934;2023-05-24T11:06:55;4.63;;;2.00;;
22963;SDS011;11648;49.306;6.934;2023-05-24T11:09:29;2.90;;;1.58;;
22963;SDS011;11648;49.306;6.934;2023-05-24T11:12:01;3.85;;;1.67;;
22963;SDS011;11648;49.306;6.934;2023-05-24T11:14:29;3.75;;;1.38;;
22963;SDS011;11648;49.306;6.934;2023-05-24T11:16:57;3.80;;;1.65;;
22963;SDS011;11648;49.306;6.934;2023-05-24T11:19:32;2.88;;;1.42;;
22963;SDS011;11648;49.306;6.934;2023-05-24T11:22:10;4.47;;;1.63;;
22963;SDS011;11648;49.306;6.934;2023-05-24T11:24:40;3.80;;;1.67;;
22963;SDS011;11648;49.306;6.934;2023-05-24T11:27:09;3.17;;;1.40;;
22963;SDS011;11648;49.306;6.934;2023-05-24T11:29:41;4.80;;;1.60;;
22963;SDS011;11648;49.306;6.934;2023-05-24T11:32:09;3.45;;;1.48;;
22963;SDS011;11648;49.306;6.934;2023-05-24T11:34:39;4.40;;;1.70;;
22963;SDS011;11648;49.306;6.934;2023-05-24T11:37:07;5.20;;;1.55;;
22963;SDS011;11648;49.306;6.934;2023-05-24T11:39:35;3.75;;;1.60;;
22963;SDS011;11648;49.306;6.934;2023-05-24T11:42:03;3.42;;;1.60;;
22963;SDS011;11648;49.306;6.934;2023-05-24T11:44:30;3.08;;;1.42;;
22963;SDS011;11648;49.306;6.934;2023-05-24T11:47:01;5.15;;;1.60;;
22963;SDS011;11648;49.306;6.934;2023-05-24T11:49:28;4.32;;;1.95;;
22963;SDS011;11648;49.306;6.934;2023-05-24T11:51:56;4.45;;;1.70;;
22963;SDS011;11648;49.306;6.934;2023-05-24T11:54:24;3.92;;;1.52;;
22963;SDS011;11648;49.306;6.934;2023-05-24T11:56:52;3.13;;;1.50;;
22963;SDS011;11648;49.306;6.934;2023-05-24T11:59:24;4.35;;;1.60;;
22963;SDS011;11648;49.306;6.934;2023-05-24T12:01:59;4.85;;;1.58;;
22963;SDS011;11648;49.306;6.934;2023-05-24T12:04:28;3.97;;;1.60;;
22963;SDS011;11648;49.306;6.934;2023-05-24T12:06:56;3.63;;;1.60;;
22963;SDS011;11648;49.306;6.934;2023-05-24T12:09:23;2.88;;;1.50;;
22963;SDS011;11648;49.306;6.934;2023-05-24T12:11:51;3.58;;;1.50;;
22963;SDS011;11648;49.306;6.934;2023-05-24T12:14:22;3.88;;;1.48;;
22963;SDS011;11648;49.306;6.934;2023-05-24T12:16:53;3.35;;;1.70;;
22963;SDS011;11648;49.306;6.934;2023-05-24T12:19:22;3.90;;;1.80;;
22963;SDS011;11648;49.306;6.934;2023-05-24T12:22:03;3.83;;;1.83;;
22963;SDS011;11648;49.306;6.934;2023-05-24T12:24:32;4.90;;;2.00;;
22963;SDS011;11648;49.306;6.934;2023-05-24T12:27:00;4.22;;;2.00;;
22963;SDS011;11648;49.306;6.934;2023-05-24T12:29:34;3.30;;;1.88;;
22963;SDS011;11648;49.306;6.934;2023-05-24T12:32:03;3.70;;;1.40;;
22963;SDS011;11648;49.306;6.934;2023-05-24T12:34:30;3.17;;;1.42;;
22963;SDS011;11648;49.306;6.934;2023-05-24T12:36:58;5.33;;;2.10;;
22963;SDS011;11648;49.306;6.934;2023-05-24T12:39:26;4.77;;;1.97;;
22963;SDS011;11648;49.306;6.934;2023-05-24T12:41:57;4.07;;;1.67;;
22963;SDS011;11648;49.306;6.934;2023-05-24T12:44:27;4.37;;;1.77;;
22963;SDS011;11648;49.306;6.934;2023-05-24T12:47:00;4.73;;;1.83;;
22963;SDS011;11648;49.306;6.934;2023-05-24T12:49:29;4.13;;;1.80;;
22963;SDS011;11648;49.306;6.934;2023-05-24T12:51:57;4.97;;;2.17;;
22963;SDS011;11648;49.306;6.934;2023-05-24T12:54:25;4.60;;;2.03;;
22963;SDS011;11648;49.306;6.934;2023-05-24T12:56:53;7.13;;;2.00;;
22963;SDS011;11648;49.306;6.934;2023-05-24T12:59:22;4.77;;;1.80;;
22963;SDS011;11648;49.306;6.934;2023-05-24T13:01:50;8.80;;;2.33;;
22963;SDS011;11648;49.306;6.934;2023-05-24T13:04:19;4.73;;;2.00;;
22963;SDS011;11648;49.306;6.934;2023-05-24T13:06:47;8.83;;;1.97;;
22963;SDS011;11648;49.306;6.934;2023-05-24T13:09:15;3.53;;;1.63;;
22963;SDS011;11648;49.306;6.934;2023-05-24T13:11:46;5.03;;;2.20;;
22963;SDS011;11648;49.306;6.934;2023-05-24T13:14:13;5.30;;;2.17;;
22963;SDS011;11648;49.306;6.934;2023-05-24T13:16:42;5.63;;;1.90;;
22963;SDS011;11648;49.306;6.934;2023-05-24T13:19:09;7.40;;;2.00;;
22963;SDS011;11648;49.306;6.934;2023-05-24T13:21:37;4.57;;;1.90;;
22963;SDS011;11648;49.306;6.934;2023-05-24T13:24:04;4.73;;;2.30;;
22963;SDS011;11648;49.306;6.934;2023-05-24T13:26:32;4.97;;;2.20;;
22963;SDS011;11648;49.306;6.934;2023-05-24T13:29:06;5.20;;;2.20;;
22963;SDS011;11648;49.306;6.934;2023-05-24T13:31:53;7.27;;;2.10;;
22963;SDS011;11648;49.306;6.934;2023-05-24T13:34:21;5.03;;;1.80;;
22963;SDS011;11648;49.306;6.934;2023-05-24T13:36:51;5.93;;;2.37;;
22963;SDS011;11648;49.306;6.934;2023-05-24T13:39:20;5.33;;;2.30;;
22963;SDS011;11648;49.306;6.934;2023-05-24T13:41:47;5.53;;;2.70;;
22963;SDS011;11648;49.306;6.934;2023-05-24T13:44:15;8.33;;;2.57;;
22963;SDS011;11648;49.306;6.934;2023-05-24T13:46:42;6.90;;;2.30;;
22963;SDS011;11648;49.306;6.934;2023-05-24T13:49:09;4.23;;;2.10;;
22963;SDS011;11648;49.306;6.934;2023-05-24T13:51:37;6.53;;;2.43;;
22963;SDS011;11648;49.306;6.934;2023-05-24T13:54:04;8.43;;;2.40;;
22963;SDS011;11648;49.306;6.934;2023-05-24T13:56:33;6.77;;;2.43;;
22963;SDS011;11648;49.306;6.934;2023-05-24T13:59:00;7.60;;;2.53;;
22963;SDS011;11648;49.306;6.934;2023-05-24T14:01:29;9.17;;;2.80;;
22963;SDS011;11648;49.306;6.934;2023-05-24T14:03:57;7.53;;;2.87;;
22963;SDS011;11648;49.306;6.934;2023-05-24T14:06:24;5.37;;;2.40;;
22963;SDS011;11648;49.306;6.934;2023-05-24T14:08:50;8.40;;;2.67;;
22963;SDS011;11648;49.306;6.934;2023-05-24T14:11:17;6.70;;;2.70;;
22963;SDS011;11648;49.306;6.934;2023-05-24T14:13:45;8.00;;;2.77;;
22963;SDS011;11648;49.306;6.934;2023-05-24T14:16:14;6.30;;;2.70;;
22963;SDS011;11648;49.306;6.934;2023-05-24T14:18:42;5.33;;;2.30;;
22963;SDS011;11648;49.306;6.934;2023-05-24T14:21:09;7.93;;;2.93;;
22963;SDS011;11648;49.306;6.934;2023-05-24T14:23:36;9.10;;;2.70;;
22963;SDS011;11648;49.306;6.934;2023-05-24T14:26:02;7.63;;;2.80;;
22963;SDS011;11648;49.306;6.934;2023-05-24T14:28:29;6.67;;;2.53;;
22963;SDS011;11648;49.306;6.934;2023-05-24T14:30:56;10.63;;;3.20;;
22963;SDS011;11648;49.306;6.934;2023-05-24T14:33:23;8.67;;;3.30;;
22963;SDS011;11648;49.306;6.934;2023-05-24T14:35:50;7.67;;;2.60;;
22963;SDS011;11648;49.306;6.934;2023-05-24T14:38:17;8.00;;;2.77;;
22963;SDS011;11648;49.306;6.934;2023-05-24T14:40:44;8.63;;;3.00;;
22963;SDS011;11648;49.306;6.934;2023-05-24T14:43:13;7.03;;;2.80;;
22963;SDS011;11648;49.306;6.934;2023-05-24T14:45:40;8.50;;;3.10;;
22963;SDS011;11648;49.306;6.934;2023-05-24T14:48:09;8.47;;;3.33;;
22963;SDS011;11648;49.306;6.934;2023-05-24T14:50:38;9.73;;;3.57;;
22963;SDS011;11648;49.306;6.934;2023-05-24T14:53:05;7.70;;;2.97;;
22963;SDS011;11648;49.306;6.934;2023-05-24T14:55:39;9.00;;;2.87;;
22963;SDS011;11648;49.306;6.934;2023-05-24T14:58:08;10.07;;;3.23;;
22963;SDS011;11648;49.306;6.934;2023-05-24T15:00:37;7.57;;;2.90;;
22963;SDS011;11648;49.306;6.934;2023-05-24T15:03:04;11.83;;;3.30;;
22963;SDS011;11648;49.306;6.934;2023-05-24T15:05:31;8.87;;;3.20;;
22963;SDS011;11648;49.306;6.934;2023-05-24T15:07:59;7.33;;;2.90;;
22963;SDS011;11648;49.306;6.934;2023-05-24T15:10:26;10.37;;;3.37;;
22963;SDS011;11648;49.306;6.934;2023-05-24T15:12:53;11.43;;;3.17;;